createdAt,value
2017-03-24T00:00:31.833Z,15.88
2017-03-24T00:01:31.229Z,16.08
2017-03-24T00:02:30.517Z,16.72
2017-03-24T00:03:29.884Z,17.33
2017-03-24T00:04:29.991Z,15.30
2017-03-24T00:05:29.358Z,15.82
2017-03-24T00:06:29.598Z,15.95
2017-03-24T00:07:28.901Z,16.53
2017-03-24T00:08:31.589Z,17.68
2017-03-24T00:09:30.926Z,16.65
2017-03-24T00:10:30.249Z,15.73
2017-03-24T00:11:29.654Z,15.18
2017-03-24T00:12:28.988Z,15.62
2017-03-24T00:13:28.301Z,15.95
2017-03-24T00:14:27.644Z,16.92
2017-03-24T00:15:26.996Z,16.68
2017-03-24T00:16:27.370Z,16.97
2017-03-24T00:17:26.736Z,14.12
2017-03-24T00:18:26.045Z,15.48
2017-03-24T00:19:25.392Z,15.75
2017-03-24T00:20:24.710Z,15.43
2017-03-24T00:21:24.483Z,16.22
2017-03-24T00:22:23.847Z,16.95
2017-03-24T00:23:23.185Z,15.68
2017-03-24T00:24:22.975Z,15.43
2017-03-24T00:25:22.306Z,16.40
2017-03-24T00:26:21.576Z,17.40
2017-03-24T00:27:20.947Z,15.52
2017-03-24T00:28:20.279Z,16.88
2017-03-24T00:29:19.583Z,16.57
2017-03-24T00:30:18.871Z,14.13
2017-03-24T00:31:18.246Z,15.88
2017-03-24T00:32:17.604Z,16.20
2017-03-24T00:33:16.905Z,15.12
2017-03-24T00:34:16.249Z,15.23
2017-03-24T00:35:15.543Z,15.53
2017-03-24T00:36:14.855Z,17.28
2017-03-24T00:37:14.215Z,15.85
2017-03-24T00:38:13.545Z,18.87
2017-03-24T00:39:12.823Z,16.25
2017-03-24T00:40:12.179Z,16.58
2017-03-24T00:41:11.471Z,16.65
2017-03-24T00:42:10.790Z,16.10
2017-03-24T00:43:10.185Z,16.42
2017-03-24T00:44:09.557Z,15.23
2017-03-24T00:45:08.879Z,16.03
2017-03-24T00:46:08.202Z,16.63
2017-03-24T00:47:07.527Z,15.05
2017-03-24T00:48:06.871Z,15.53
2017-03-24T00:49:06.174Z,17.42
2017-03-24T00:50:05.525Z,16.92
2017-03-24T00:51:05.598Z,15.72
2017-03-24T00:52:05.306Z,16.25
2017-03-24T00:53:05.058Z,16.72
2017-03-24T00:54:04.414Z,15.88
2017-03-24T00:55:03.739Z,17.80
2017-03-24T00:56:03.021Z,14.53
2017-03-24T00:57:02.285Z,15.62
2017-03-24T00:58:01.668Z,16.70
2017-03-24T00:59:00.939Z,15.98
2017-03-24T01:00:00.242Z,16.88
2017-03-24T01:00:59.503Z,16.40
2017-03-24T01:01:58.847Z,17.73
2017-03-24T01:02:58.120Z,17.65
2017-03-24T01:03:57.438Z,16.63
2017-03-24T01:04:56.718Z,17.80
2017-03-24T01:05:56.024Z,16.80
2017-03-24T01:06:55.346Z,17.73
2017-03-24T01:07:54.675Z,17.27
2017-03-24T01:08:53.935Z,16.47
2017-03-24T01:09:53.230Z,16.73
2017-03-24T01:10:52.517Z,18.85
2017-03-24T01:11:51.850Z,15.98
2017-03-24T01:12:51.916Z,16.90
2017-03-24T01:13:51.216Z,17.57
2017-03-24T01:14:50.501Z,17.58
2017-03-24T01:15:49.922Z,17.63
2017-03-24T01:16:49.203Z,17.00
2017-03-24T01:17:48.669Z,17.57
2017-03-24T01:18:48.000Z,17.22
2017-03-24T01:19:47.297Z,18.23
2017-03-24T01:20:46.607Z,17.35
2017-03-24T01:21:45.907Z,18.25
2017-03-24T01:22:45.266Z,18.33
2017-03-24T01:23:44.548Z,17.70
2017-03-24T01:24:43.872Z,16.88
2017-03-24T01:25:43.214Z,18.20
2017-03-24T01:26:42.579Z,17.25
2017-03-24T01:27:42.303Z,18.33
2017-03-24T01:28:41.605Z,18.10
2017-03-24T01:29:40.888Z,19.15
2017-03-24T01:30:40.183Z,16.98
2017-03-24T01:31:39.492Z,18.03
2017-03-24T01:32:39.530Z,16.92
2017-03-24T01:33:38.843Z,18.20
2017-03-24T01:34:38.163Z,17.15
2017-03-24T01:35:37.429Z,16.95
2017-03-24T01:36:36.798Z,17.20
2017-03-24T01:37:36.079Z,17.63
2017-03-24T01:38:35.428Z,17.12
2017-03-24T01:39:34.685Z,17.62
2017-03-24T01:40:34.051Z,19.03
2017-03-24T01:41:33.329Z,18.25
2017-03-24T01:42:32.897Z,17.63
2017-03-24T01:43:32.256Z,18.13
2017-03-24T01:44:31.644Z,18.33
2017-03-24T01:45:30.991Z,17.67
2017-03-24T01:46:30.307Z,19.83
2017-03-24T01:47:29.580Z,19.13
2017-03-24T01:48:29.254Z,18.78
2017-03-24T01:49:29.426Z,17.78
2017-03-24T01:50:28.733Z,18.00
2017-03-24T01:51:28.043Z,17.95
2017-03-24T01:52:28.124Z,17.52
2017-03-24T01:53:27.602Z,18.45
2017-03-24T01:54:26.942Z,17.93
2017-03-24T01:55:26.306Z,17.40
2017-03-24T01:56:25.610Z,18.37
2017-03-24T01:57:24.934Z,18.37
2017-03-24T01:58:24.405Z,17.18
2017-03-24T01:59:23.764Z,20.13
2017-03-24T02:00:23.286Z,18.15
2017-03-24T02:01:22.595Z,18.32
2017-03-24T02:02:21.893Z,17.23
2017-03-24T02:03:21.193Z,18.60
2017-03-24T02:04:21.563Z,17.65
2017-03-24T02:05:22.429Z,18.58
2017-03-24T02:06:21.734Z,19.78
2017-03-24T02:07:21.213Z,19.07
2017-03-24T02:08:20.519Z,19.58
2017-03-24T02:09:20.450Z,19.68
2017-03-24T02:10:20.086Z,19.55
2017-03-24T02:11:19.483Z,16.68
2017-03-24T02:12:18.757Z,17.70
2017-03-24T02:13:18.037Z,18.13
2017-03-24T02:14:17.326Z,18.20
2017-03-24T02:15:18.105Z,19.20
2017-03-24T02:16:17.430Z,17.43
2017-03-24T02:17:16.736Z,18.12
2017-03-24T02:18:16.469Z,17.38
2017-03-24T02:19:18.950Z,18.22
2017-03-24T02:20:21.776Z,18.20
2017-03-24T02:21:22.093Z,17.60
2017-03-24T02:22:21.414Z,18.97
2017-03-24T02:23:21.396Z,18.12
2017-03-24T02:24:21.654Z,17.70
2017-03-24T02:25:21.299Z,16.70
2017-03-24T02:26:21.698Z,17.65
2017-03-24T02:27:21.738Z,17.17
2017-03-24T02:28:22.505Z,17.78
2017-03-24T02:29:23.270Z,19.47
2017-03-24T02:30:23.037Z,17.02
2017-03-24T02:31:23.273Z,16.50
2017-03-24T02:32:22.785Z,17.38
2017-03-24T02:33:23.292Z,17.33
2017-03-24T02:34:22.632Z,17.40
2017-03-24T02:35:22.026Z,17.48
2017-03-24T02:36:21.363Z,17.58
2017-03-24T02:37:20.632Z,17.97
2017-03-24T02:38:20.390Z,20.57
2017-03-24T02:39:19.766Z,18.93
2017-03-24T02:40:19.705Z,16.83
2017-03-24T02:41:18.986Z,18.93
2017-03-24T02:42:18.991Z,16.42
2017-03-24T02:43:18.315Z,18.45
2017-03-24T02:44:17.645Z,19.62
2017-03-24T02:45:16.984Z,18.60
2017-03-24T02:46:16.282Z,17.85
2017-03-24T02:47:15.647Z,18.17
2017-03-24T02:48:15.019Z,19.47
2017-03-24T02:49:15.103Z,19.00
2017-03-24T02:50:14.707Z,19.77
2017-03-24T02:51:14.064Z,19.87
2017-03-24T02:52:13.442Z,19.40
2017-03-24T02:53:12.785Z,21.58
2017-03-24T02:54:12.882Z,20.22
2017-03-24T02:55:12.168Z,22.07
2017-03-24T02:56:11.570Z,19.95
2017-03-24T02:57:10.864Z,20.38
2017-03-24T02:58:10.158Z,20.53
2017-03-24T02:59:09.881Z,22.08
2017-03-24T03:00:11.551Z,20.62
2017-03-24T03:01:11.249Z,22.50
2017-03-24T03:02:10.549Z,19.55
2017-03-24T03:03:10.204Z,21.20
2017-03-24T03:04:10.668Z,21.12
2017-03-24T03:05:10.455Z,21.70
2017-03-24T03:06:10.697Z,20.52
2017-03-24T03:07:10.045Z,18.70
2017-03-24T03:08:09.364Z,21.93
2017-03-24T03:09:08.766Z,21.38
2017-03-24T03:10:09.098Z,20.67
2017-03-24T03:11:08.495Z,20.38
2017-03-24T03:12:07.814Z,20.43
2017-03-24T03:13:07.180Z,21.60
2017-03-24T03:14:06.508Z,21.20
2017-03-24T03:15:06.080Z,18.10
2017-03-24T03:16:05.861Z,19.57
2017-03-24T03:17:06.847Z,20.15
2017-03-24T03:18:07.589Z,20.88
2017-03-24T03:19:06.874Z,19.98
2017-03-24T03:20:07.603Z,19.75
2017-03-24T03:21:06.924Z,20.48
2017-03-24T03:22:06.242Z,19.20
2017-03-24T03:23:05.588Z,20.67
2017-03-24T03:24:04.972Z,17.60
2017-03-24T03:25:04.276Z,20.32
2017-03-24T03:26:06.046Z,22.05
2017-03-24T03:27:05.405Z,20.80
2017-03-24T03:28:04.756Z,19.37
2017-03-24T03:29:04.598Z,18.17
2017-03-24T03:30:04.427Z,21.20
2017-03-24T03:31:04.110Z,18.65
2017-03-24T03:32:03.793Z,19.82
2017-03-24T03:33:03.483Z,20.37
2017-03-24T03:34:02.789Z,19.92
2017-03-24T03:35:02.133Z,21.68
2017-03-24T03:36:01.485Z,18.20
2017-03-24T03:37:00.847Z,21.03
2017-03-24T03:38:00.477Z,21.43
2017-03-24T03:38:59.744Z,20.58
2017-03-24T03:39:59.049Z,19.78
2017-03-24T03:40:58.435Z,19.72
2017-03-24T03:42:00.651Z,20.10
2017-03-24T03:43:00.049Z,20.08
2017-03-24T03:43:59.338Z,19.20
2017-03-24T03:44:58.650Z,19.47
2017-03-24T03:45:57.944Z,20.12
2017-03-24T03:46:57.304Z,20.87
2017-03-24T03:47:57.299Z,19.60
2017-03-24T03:48:56.603Z,20.18
2017-03-24T03:49:55.896Z,18.82
2017-03-24T03:50:55.234Z,22.52
2017-03-24T03:51:54.538Z,20.15
2017-03-24T03:52:54.602Z,19.90
2017-03-24T03:53:53.965Z,18.87
2017-03-24T03:54:53.316Z,20.58
2017-03-24T03:55:52.618Z,20.95
2017-03-24T03:56:52.015Z,19.43
2017-03-24T03:57:51.336Z,18.60
2017-03-24T03:58:50.649Z,18.40
2017-03-24T03:59:49.950Z,21.03
2017-03-24T04:00:49.295Z,21.20
2017-03-24T04:01:48.669Z,18.88
2017-03-24T04:02:48.055Z,19.50
2017-03-24T04:03:47.383Z,18.67
2017-03-24T04:04:46.761Z,18.72
2017-03-24T04:05:46.797Z,19.45
2017-03-24T04:06:46.191Z,18.67
2017-03-24T04:07:46.786Z,19.13
2017-03-24T04:08:46.086Z,18.58
2017-03-24T04:09:45.356Z,19.00
2017-03-24T04:10:44.654Z,18.55
2017-03-24T04:11:44.021Z,19.78
2017-03-24T04:12:43.337Z,20.10
2017-03-24T04:13:42.660Z,19.80
2017-03-24T04:14:41.949Z,20.23
2017-03-24T04:15:41.257Z,21.07
2017-03-24T04:16:45.132Z,21.67
2017-03-24T04:17:44.377Z,20.35
2017-03-24T04:18:43.681Z,21.55
2017-03-24T04:19:42.963Z,20.85
2017-03-24T04:20:42.321Z,20.78
2017-03-24T04:21:41.680Z,20.92
2017-03-24T04:22:41.016Z,21.03
2017-03-24T04:23:41.169Z,21.73
2017-03-24T04:24:40.392Z,22.45
2017-03-24T04:25:44.248Z,23.07
2017-03-24T04:26:43.576Z,21.13
2017-03-24T04:27:42.881Z,21.43
2017-03-24T04:28:42.150Z,23.82
2017-03-24T04:29:41.487Z,20.85
2017-03-24T04:30:40.766Z,21.03
2017-03-24T04:31:40.119Z,21.48
2017-03-24T04:32:39.508Z,20.52
2017-03-24T04:33:38.848Z,20.97
2017-03-24T04:34:38.436Z,21.95
2017-03-24T04:35:38.512Z,20.60
2017-03-24T04:36:37.804Z,20.97
2017-03-24T04:37:37.135Z,21.20
2017-03-24T04:38:36.453Z,23.95
2017-03-24T04:39:35.758Z,25.77
2017-03-24T04:40:35.064Z,29.85
2017-03-24T04:41:34.377Z,24.75
2017-03-24T04:42:33.723Z,23.18
2017-03-24T04:43:33.017Z,22.40
2017-03-24T04:44:32.365Z,24.42
2017-03-24T04:45:31.941Z,22.92
2017-03-24T04:46:31.390Z,23.32
2017-03-24T04:47:30.720Z,21.75
2017-03-24T04:48:30.013Z,21.02
2017-03-24T04:49:29.297Z,23.57
2017-03-24T04:50:28.592Z,22.10
2017-03-24T04:51:27.916Z,22.65
2017-03-24T04:52:27.285Z,23.28
2017-03-24T04:53:26.659Z,21.57
2017-03-24T04:54:26.022Z,21.45
2017-03-24T04:55:25.325Z,22.28
2017-03-24T04:56:24.645Z,23.23
2017-03-24T04:57:24.335Z,21.90
2017-03-24T04:58:24.403Z,22.75
2017-03-24T04:59:23.788Z,22.30
2017-03-24T05:00:23.137Z,24.75
2017-03-24T05:01:22.406Z,24.40
2017-03-24T05:02:21.711Z,22.58
2017-03-24T05:03:21.135Z,23.02
2017-03-24T05:04:20.442Z,21.58
2017-03-24T05:05:19.750Z,22.78
2017-03-24T05:06:19.070Z,23.93
2017-03-24T05:07:19.171Z,20.80
2017-03-24T05:08:18.524Z,22.33
2017-03-24T05:09:17.845Z,23.68
2017-03-24T05:10:17.185Z,24.32
2017-03-24T05:11:16.510Z,25.17
2017-03-24T05:12:15.847Z,24.87
2017-03-24T05:13:15.197Z,25.35
2017-03-24T05:14:14.533Z,23.50
2017-03-24T05:15:13.816Z,22.73
2017-03-24T05:16:13.168Z,22.80
2017-03-24T05:17:12.528Z,24.35
2017-03-24T05:18:11.926Z,23.75
2017-03-24T05:19:11.353Z,23.25
2017-03-24T05:20:10.687Z,22.88
2017-03-24T05:21:09.974Z,24.97
2017-03-24T05:22:09.260Z,23.90
2017-03-24T05:23:08.648Z,22.02
2017-03-24T05:24:07.977Z,23.95
2017-03-24T05:25:07.296Z,23.22
2017-03-24T05:26:06.572Z,24.25
2017-03-24T05:27:05.852Z,26.48
2017-03-24T05:28:05.208Z,28.03
2017-03-24T05:29:04.523Z,33.35
2017-03-24T05:30:03.848Z,36.02
2017-03-24T05:31:03.159Z,37.03
2017-03-24T05:32:02.494Z,38.17
2017-03-24T05:33:02.532Z,33.97
2017-03-24T05:34:01.885Z,31.95
2017-03-24T05:35:01.941Z,30.43
2017-03-24T05:36:01.292Z,28.52
2017-03-24T05:37:00.746Z,28.82
2017-03-24T05:38:00.365Z,28.30
2017-03-24T05:39:00.416Z,27.63
2017-03-24T05:39:59.712Z,27.72
2017-03-24T05:40:58.974Z,33.22
2017-03-24T05:41:58.371Z,30.87
2017-03-24T05:42:58.352Z,32.43
2017-03-24T05:43:57.732Z,33.70
2017-03-24T05:44:57.053Z,36.92
2017-03-24T05:45:57.694Z,28.82
2017-03-24T05:46:57.035Z,31.32
2017-03-24T05:47:56.318Z,28.80
2017-03-24T05:48:55.646Z,28.88
2017-03-24T05:49:55.471Z,32.90
2017-03-24T05:50:54.741Z,33.43
2017-03-24T05:51:54.003Z,32.28
2017-03-24T05:52:53.270Z,29.45
2017-03-24T05:53:52.576Z,29.18
2017-03-24T05:54:51.880Z,39.22
2017-03-24T05:55:51.162Z,30.63
2017-03-24T05:56:50.425Z,31.58
2017-03-24T05:57:49.718Z,30.78
2017-03-24T05:58:49.079Z,30.85
2017-03-24T05:59:48.399Z,30.98
2017-03-24T06:00:48.341Z,31.17
2017-03-24T06:01:47.663Z,31.97
2017-03-24T06:02:46.962Z,33.97
2017-03-24T06:03:49.555Z,31.95
2017-03-24T06:04:48.916Z,32.97
2017-03-24T06:05:48.364Z,34.57
2017-03-24T06:06:47.646Z,35.20
2017-03-24T06:07:46.984Z,39.82
2017-03-24T06:08:46.309Z,47.67
2017-03-24T06:09:45.550Z,46.97
2017-03-24T06:10:44.851Z,41.02
2017-03-24T06:11:44.226Z,38.32
2017-03-24T06:12:43.470Z,39.53
2017-03-24T06:13:42.835Z,38.47
2017-03-24T06:14:42.140Z,35.78
2017-03-24T06:15:41.466Z,35.35
2017-03-24T06:16:40.828Z,36.43
2017-03-24T06:17:40.103Z,34.33
2017-03-24T06:18:39.735Z,33.98
2017-03-24T06:19:39.027Z,28.72
2017-03-24T06:20:38.350Z,25.42
2017-03-24T06:21:37.618Z,32.55
2017-03-24T06:22:37.003Z,31.23
2017-03-24T06:23:36.285Z,28.32
2017-03-24T06:24:35.635Z,29.13
2017-03-24T06:25:34.968Z,31.28
2017-03-24T06:26:34.285Z,26.72
2017-03-24T06:27:34.354Z,28.72
2017-03-24T06:28:33.756Z,30.93
2017-03-24T06:29:33.994Z,27.25
2017-03-24T06:30:33.352Z,25.82
2017-03-24T06:31:32.730Z,26.97
2017-03-24T06:32:32.132Z,26.75
2017-03-24T06:33:31.437Z,26.33
2017-03-24T06:34:30.824Z,21.47
2017-03-24T06:35:30.112Z,25.77
2017-03-24T06:36:29.482Z,26.55
2017-03-24T06:37:28.779Z,27.92
2017-03-24T06:38:28.114Z,24.22
2017-03-24T06:39:27.466Z,29.32
2017-03-24T06:40:27.300Z,24.38
2017-03-24T06:41:27.329Z,26.82
2017-03-24T06:42:26.626Z,27.17
2017-03-24T06:43:25.887Z,25.27
2017-03-24T06:44:25.958Z,24.53
2017-03-24T06:45:25.388Z,24.75
2017-03-24T06:46:24.698Z,25.23
2017-03-24T06:47:24.739Z,27.33
2017-03-24T06:48:23.991Z,26.30
2017-03-24T06:49:23.642Z,26.70
2017-03-24T06:50:22.955Z,25.53
2017-03-24T06:51:22.234Z,24.43
2017-03-24T06:52:21.576Z,25.70
2017-03-24T06:53:20.991Z,24.78
2017-03-24T06:54:20.364Z,25.97
2017-03-24T06:55:19.762Z,23.43
2017-03-24T06:56:19.210Z,24.18
2017-03-24T06:57:19.241Z,25.12
2017-03-24T06:58:18.545Z,25.27
2017-03-24T06:59:17.893Z,25.22
2017-03-24T07:00:17.610Z,24.93
2017-03-24T07:01:17.663Z,23.63
2017-03-24T07:02:16.966Z,23.45
2017-03-24T07:03:16.281Z,22.98
2017-03-24T07:04:15.579Z,22.27
2017-03-24T07:05:14.866Z,23.28
2017-03-24T07:06:14.283Z,22.93
2017-03-24T07:07:17.968Z,23.25
2017-03-24T07:08:17.818Z,24.63
2017-03-24T07:09:17.157Z,23.00
2017-03-24T07:10:16.467Z,21.90
2017-03-24T07:11:15.774Z,24.57
2017-03-24T07:12:15.054Z,21.23
2017-03-24T07:13:14.315Z,21.72
2017-03-24T07:14:14.349Z,24.23
2017-03-24T07:15:13.678Z,23.40
2017-03-24T07:16:13.040Z,23.63
2017-03-24T07:17:12.353Z,21.68
2017-03-24T07:18:11.714Z,22.35
2017-03-24T07:19:11.062Z,22.63
2017-03-24T07:29:01.824Z,22.37
2017-03-24T07:30:01.894Z,17.92
2017-03-24T07:31:01.222Z,19.70
2017-03-24T07:32:00.536Z,18.37
2017-03-24T07:32:59.837Z,19.38
2017-03-24T07:33:59.129Z,22.07
2017-03-24T07:34:58.630Z,18.57
2017-03-24T07:35:57.915Z,19.72
2017-03-24T07:36:57.339Z,18.62
2017-03-24T07:37:56.620Z,21.15
2017-03-24T07:38:55.939Z,19.47
2017-03-24T07:39:55.254Z,20.07
2017-03-24T07:40:54.558Z,20.60
2017-03-24T07:41:53.879Z,19.98
2017-03-24T07:42:54.523Z,19.43
2017-03-24T07:43:53.814Z,19.62
2017-03-24T07:44:53.152Z,20.15
2017-03-24T07:45:52.451Z,18.45
2017-03-24T07:46:51.850Z,18.23
2017-03-24T07:47:51.131Z,18.63
2017-03-24T07:48:50.425Z,17.90
2017-03-24T07:49:49.684Z,18.65
2017-03-24T07:50:48.950Z,18.10
2017-03-24T07:51:48.244Z,18.22
2017-03-24T07:52:47.628Z,18.27
2017-03-24T07:53:47.175Z,18.03
2017-03-24T07:54:46.570Z,19.28
2017-03-24T07:55:45.856Z,17.10
2017-03-24T07:56:45.587Z,18.07
2017-03-24T07:57:44.861Z,17.33
2017-03-24T07:58:44.096Z,18.70
2017-03-24T07:59:43.463Z,17.13
2017-03-24T08:00:42.775Z,16.82
2017-03-24T08:01:42.099Z,18.40
2017-03-24T08:02:41.474Z,17.80
2017-03-24T08:03:40.779Z,17.98
2017-03-24T08:04:40.167Z,15.18
2017-03-24T08:05:39.546Z,15.92
2017-03-24T08:06:39.402Z,16.65
2017-03-24T08:07:38.902Z,15.52
2017-03-24T08:08:38.314Z,17.37
2017-03-24T08:09:37.731Z,17.58
2017-03-24T08:10:37.015Z,15.95
2017-03-24T08:11:36.368Z,15.88
2017-03-24T08:12:35.679Z,13.58
2017-03-24T08:13:35.028Z,16.28
2017-03-24T08:14:35.810Z,16.33
2017-03-24T08:15:35.086Z,15.98
2017-03-24T08:16:34.449Z,14.95
2017-03-24T08:17:33.769Z,13.77
2017-03-24T08:18:33.134Z,14.32
2017-03-24T08:19:32.533Z,15.13
2017-03-24T08:20:31.883Z,15.43
2017-03-24T08:21:31.172Z,14.97
2017-03-24T08:22:30.578Z,14.18
2017-03-24T08:23:29.871Z,15.37
2017-03-24T08:24:29.166Z,13.72
2017-03-24T08:25:28.754Z,14.67
2017-03-24T08:26:30.419Z,14.22
2017-03-24T08:27:29.815Z,14.23
2017-03-24T08:28:29.160Z,13.13
2017-03-24T08:29:28.562Z,14.77
2017-03-24T08:30:27.870Z,13.42
2017-03-24T08:31:27.181Z,13.23
2017-03-24T08:32:27.531Z,11.55
2017-03-24T08:33:27.618Z,13.35
2017-03-24T08:34:26.925Z,12.58
2017-03-24T08:35:26.232Z,12.78
2017-03-24T08:36:26.294Z,12.67
2017-03-24T08:37:25.885Z,11.20
2017-03-24T08:38:25.185Z,12.43
2017-03-24T08:39:24.530Z,12.73
2017-03-24T08:40:23.848Z,12.12
2017-03-24T08:41:23.165Z,11.68
2017-03-24T08:42:22.799Z,13.23
2017-03-24T08:43:22.104Z,11.38
2017-03-24T08:44:21.356Z,11.32
2017-03-24T08:45:20.651Z,11.33
2017-03-24T08:46:19.949Z,10.35
2017-03-24T08:47:19.303Z,10.68
2017-03-24T08:48:18.681Z,10.62
2017-03-24T08:49:18.099Z,10.98
2017-03-24T08:50:17.465Z,11.75
2017-03-24T08:51:16.800Z,10.83
2017-03-24T08:52:16.127Z,11.30
2017-03-24T08:53:15.475Z,11.72
2017-03-24T08:54:15.569Z,10.90
2017-03-24T08:55:15.450Z,10.58
2017-03-24T08:56:14.819Z,9.38
2017-03-24T08:57:14.352Z,9.05
2017-03-24T08:58:13.708Z,9.40
2017-03-24T08:59:13.630Z,9.07
2017-03-24T09:00:14.401Z,8.08
2017-03-24T09:01:13.935Z,9.78
2017-03-24T09:02:13.323Z,8.55
2017-03-24T09:09:03.590Z,10.05
2017-03-24T09:10:02.909Z,6.87
2017-03-24T09:11:02.201Z,5.85
2017-03-24T09:12:01.506Z,7.10
2017-03-24T09:13:00.812Z,6.67
2017-03-24T09:14:00.118Z,6.67
2017-03-24T09:14:59.385Z,6.05
2017-03-24T09:15:58.665Z,6.00
2017-03-24T09:16:57.965Z,6.48
2017-03-24T09:17:57.211Z,5.92
2017-03-24T09:18:56.643Z,5.63
2017-03-24T09:19:55.949Z,6.92
2017-03-24T09:20:55.240Z,6.33
2017-03-24T09:21:54.528Z,6.96
2017-03-24T09:22:53.807Z,5.23
2017-03-24T09:23:53.090Z,5.57
2017-03-24T09:24:52.553Z,5.67
2017-03-24T09:25:51.879Z,5.22
2017-03-24T09:26:51.236Z,5.83
2017-03-24T09:27:50.546Z,5.17
2017-03-24T09:28:49.866Z,5.73
2017-03-24T09:29:49.224Z,6.50
2017-03-24T09:30:48.535Z,6.33
2017-03-24T09:31:47.859Z,6.32
2017-03-24T09:32:47.118Z,5.57
2017-03-24T09:33:47.454Z,5.62
2017-03-24T09:34:46.709Z,6.82
2017-03-24T09:35:45.978Z,5.68
2017-03-24T09:36:45.360Z,5.72
2017-03-24T09:37:44.706Z,5.75
2017-03-24T09:38:44.019Z,6.07
2017-03-24T09:39:43.291Z,5.72
2017-03-24T09:40:42.638Z,5.37
2017-03-24T09:41:41.935Z,5.62
2017-03-24T09:42:41.231Z,5.22
2017-03-24T09:43:40.556Z,4.48
2017-03-24T09:44:39.823Z,4.65
2017-03-24T09:45:39.096Z,4.82
2017-03-24T09:46:38.396Z,5.22
2017-03-24T09:47:37.747Z,6.03
2017-03-24T09:48:37.061Z,5.52
2017-03-24T09:49:37.141Z,4.90
2017-03-24T09:50:36.449Z,5.27
2017-03-24T09:51:35.707Z,4.90
2017-03-24T09:52:35.023Z,4.60
2017-03-24T09:53:34.689Z,4.53
2017-03-24T09:54:33.957Z,5.30
2017-03-24T09:55:33.266Z,5.10
2017-03-24T09:56:32.546Z,4.20
2017-03-24T09:57:31.816Z,3.90
2017-03-24T09:58:31.145Z,4.52
2017-03-24T09:59:30.551Z,5.17
2017-03-24T10:00:29.906Z,4.30
2017-03-24T10:01:29.223Z,5.23
2017-03-24T10:02:28.616Z,5.20
2017-03-24T10:03:27.878Z,5.50
2017-03-24T10:04:27.192Z,5.92
2017-03-24T10:05:26.539Z,6.33
2017-03-24T10:06:25.849Z,5.60
2017-03-24T10:07:25.148Z,5.95
2017-03-24T10:08:24.435Z,5.25
2017-03-24T10:09:24.187Z,5.52
2017-03-24T10:10:23.477Z,6.38
2017-03-24T10:11:22.783Z,5.58
2017-03-24T10:12:22.026Z,5.28
2017-03-24T10:13:21.367Z,5.22
2017-03-24T10:14:20.649Z,5.45
2017-03-24T10:15:19.958Z,4.23
2017-03-24T10:16:19.365Z,4.62
2017-03-24T10:17:18.655Z,5.30
2017-03-24T10:18:17.943Z,5.23
2017-03-24T10:19:17.248Z,4.88
2017-03-24T10:20:16.516Z,5.10
2017-03-24T10:29:00.822Z,4.25
2017-03-24T10:30:00.133Z,4.00
2017-03-24T10:30:59.416Z,4.80
2017-03-24T10:31:58.720Z,5.35
2017-03-24T10:32:57.985Z,5.28
2017-03-24T10:33:57.307Z,5.08
2017-03-24T10:34:56.590Z,4.52
2017-03-24T10:35:55.812Z,3.82
2017-03-24T10:36:55.089Z,5.18
2017-03-24T10:37:55.071Z,5.17
2017-03-24T10:38:54.396Z,4.92
2017-03-24T10:39:53.698Z,4.75
2017-03-24T10:40:53.001Z,4.75
2017-03-24T10:41:52.238Z,4.30
2017-03-24T10:42:51.504Z,5.92
2017-03-24T10:43:50.797Z,4.80
2017-03-24T10:44:50.111Z,5.62
2017-03-24T10:45:49.433Z,5.02
2017-03-24T10:46:48.744Z,4.93
2017-03-24T10:47:48.053Z,4.43
2017-03-24T10:48:48.097Z,5.75
2017-03-24T10:49:48.254Z,4.08
2017-03-24T10:50:47.512Z,4.57
2017-03-24T10:51:46.792Z,4.30
2017-03-24T10:52:46.040Z,5.30
2017-03-24T10:53:45.294Z,4.50
2017-03-24T10:54:45.740Z,5.32
2017-03-24T10:55:45.030Z,4.80
2017-03-24T10:56:44.333Z,4.55
2017-03-24T10:57:44.326Z,4.50
2017-03-24T10:58:43.562Z,4.28
2017-03-24T10:59:42.869Z,3.92
2017-03-24T11:00:42.160Z,4.25
2017-03-24T11:01:41.481Z,4.97
2017-03-24T11:02:40.731Z,4.55
2017-03-24T11:03:40.742Z,4.43
2017-03-24T11:04:40.313Z,5.05
2017-03-24T11:05:39.581Z,4.35
2017-03-24T11:06:38.907Z,4.92
2017-03-24T11:07:38.174Z,4.55
2017-03-24T11:08:37.490Z,4.78
2017-03-24T11:09:36.759Z,4.67
2017-03-24T11:10:36.153Z,4.57
2017-03-24T11:11:35.381Z,4.43
2017-03-24T11:12:41.313Z,4.68
2017-03-24T11:13:41.289Z,4.88
2017-03-24T11:14:40.577Z,4.58
2017-03-24T11:15:39.895Z,4.65
2017-03-24T11:16:39.156Z,4.78
2017-03-24T11:17:38.435Z,3.98
2017-03-24T11:18:37.694Z,4.63
2017-03-24T11:19:36.941Z,4.25
2017-03-24T11:20:36.235Z,4.02
2017-03-24T11:21:36.271Z,3.45
2017-03-24T11:22:35.581Z,3.67
2017-03-24T11:23:34.924Z,3.78
2017-03-24T11:24:34.172Z,3.85
2017-03-24T11:25:33.420Z,3.55
2017-03-24T11:26:32.679Z,4.42
2017-03-24T11:27:31.955Z,4.18
2017-03-24T11:28:31.250Z,3.85
2017-03-24T11:29:30.504Z,4.13
2017-03-24T11:30:29.772Z,4.08
2017-03-24T11:31:29.018Z,3.10
2017-03-24T11:32:28.265Z,3.12
2017-03-24T11:33:27.534Z,3.25
2017-03-24T11:34:27.832Z,3.38
2017-03-24T11:35:28.007Z,4.13
2017-03-24T11:36:27.276Z,3.93
2017-03-24T11:37:26.611Z,3.97
2017-03-24T11:38:25.909Z,3.75
2017-03-24T11:39:25.200Z,3.40
2017-03-24T11:40:24.502Z,3.93
2017-03-24T11:41:23.803Z,6.33
2017-03-24T11:42:23.105Z,6.42
2017-03-24T11:43:22.421Z,5.90
2017-03-24T11:44:21.733Z,6.20
2017-03-24T11:45:21.362Z,5.58
2017-03-24T11:46:20.649Z,5.47
2017-03-24T11:47:19.957Z,5.22
2017-03-24T11:48:19.258Z,6.12
2017-03-24T11:49:18.606Z,5.98
2017-03-24T11:50:17.905Z,5.83
2017-03-24T11:51:18.009Z,6.22
2017-03-24T11:52:17.257Z,6.23
2017-03-24T11:53:16.490Z,6.45
2017-03-24T11:54:16.587Z,6.65
2017-03-24T11:55:16.827Z,5.93
2017-03-24T11:56:16.182Z,5.28
2017-03-24T11:57:15.498Z,4.97
2017-03-24T11:58:15.633Z,5.63
2017-03-24T11:59:14.911Z,5.18
2017-03-24T12:00:14.307Z,5.02
2017-03-24T12:01:13.761Z,4.43
2017-03-24T12:02:13.210Z,4.33
2017-03-24T12:03:12.484Z,4.98
2017-03-24T12:04:11.748Z,4.42
2017-03-24T12:05:11.872Z,4.65
2017-03-24T12:06:11.224Z,4.95
2017-03-24T12:07:10.513Z,4.80
2017-03-24T12:08:09.832Z,4.58
2017-03-24T12:09:09.175Z,4.57
2017-03-24T12:10:08.420Z,4.62
2017-03-24T12:11:07.766Z,4.85
2017-03-24T12:12:07.118Z,5.05
2017-03-24T12:13:06.571Z,5.10
2017-03-24T12:14:05.888Z,4.22
2017-03-24T12:15:05.418Z,4.80
2017-03-24T12:16:04.758Z,4.33
2017-03-24T12:17:04.050Z,4.48
2017-03-24T12:18:03.347Z,4.45
2017-03-24T12:19:02.619Z,4.37
2017-03-24T12:20:01.888Z,3.37
2017-03-24T12:21:01.958Z,3.98
2017-03-24T12:22:01.208Z,3.88
2017-03-24T12:23:00.441Z,4.52
2017-03-24T12:23:59.711Z,4.10
2017-03-24T12:24:59.006Z,3.70
2017-03-24T12:25:58.632Z,3.92
2017-03-24T12:26:57.950Z,3.05
2017-03-24T12:27:57.220Z,4.00
2017-03-24T12:28:56.560Z,3.97
2017-03-24T12:29:55.817Z,3.75
2017-03-24T12:30:55.103Z,3.85
2017-03-24T12:31:54.415Z,4.35
2017-03-24T12:32:53.760Z,3.95
2017-03-24T12:33:53.003Z,3.93
2017-03-24T12:34:52.254Z,3.28
2017-03-24T12:35:51.506Z,3.75
2017-03-24T12:36:50.842Z,4.10
2017-03-24T12:37:50.136Z,3.70
2017-03-24T12:38:50.116Z,3.57
2017-03-24T12:39:49.403Z,3.63
2017-03-24T12:40:48.642Z,2.55
2017-03-24T12:41:47.987Z,3.45
2017-03-24T12:42:47.258Z,3.33
2017-03-24T12:43:46.596Z,3.05
2017-03-24T12:44:45.847Z,3.78
2017-03-24T12:45:45.120Z,3.73
2017-03-24T12:46:44.503Z,3.78
2017-03-24T12:47:43.859Z,4.25
2017-03-24T12:48:43.158Z,4.00
2017-03-24T12:49:42.460Z,3.90
2017-03-24T12:50:41.846Z,4.18
2017-03-24T12:51:41.130Z,4.45
2017-03-24T12:52:40.387Z,4.30
2017-03-24T12:53:39.669Z,4.35
2017-03-24T12:54:38.938Z,4.15
2017-03-24T12:55:38.307Z,4.28
2017-03-24T12:56:37.619Z,4.12
2017-03-24T12:57:36.937Z,3.95
2017-03-24T12:58:36.271Z,3.62
2017-03-24T12:59:35.535Z,3.18
2017-03-24T13:00:34.839Z,4.55
2017-03-24T13:01:34.127Z,3.85
2017-03-24T13:02:33.457Z,4.47
2017-03-24T13:03:32.773Z,3.95
2017-03-24T13:04:32.034Z,3.92
2017-03-24T13:05:31.397Z,4.05
2017-03-24T13:06:30.666Z,3.90
2017-03-24T13:07:30.009Z,4.27
2017-03-24T13:08:29.280Z,3.62
2017-03-24T13:09:28.521Z,3.77
2017-03-24T13:10:27.806Z,4.35
2017-03-24T13:11:27.094Z,3.42
2017-03-24T13:12:26.459Z,4.93
2017-03-24T13:13:25.780Z,6.00
2017-03-24T13:14:25.091Z,4.35
2017-03-24T13:15:24.407Z,4.05
2017-03-24T13:16:23.712Z,3.77